TWStats

Worldsde248PlayersTribesLatest EnnoblementsWarsRivalriesCompare
Search

TWStatsTWStats
de248
Open
1,73715723,582

VollmondStamm

~Mond~
#11 points
#28 ODA
#20 ODD
#25 ODS
#23 OD
Compare
HomeMembersHistoryEnnoblementsTribe changesWars
VillagePointsOld ownerNew ownerEnnobled at
No records to display
Barbarendorf (630|426) K46271-Peter-73 (~Mond~)5/10/26, 2:17 PM
Barbarendorf (640|451) K461,526-Totengraeber (~Mond~)5/9/26, 7:01 PM
239-Ag (569|516) K5511,737GarriPotta (~Mond~)Azzlack029 (Legal)5/9/26, 6:31 PM
R.I.P MacArther (625|479) K461,826-GrafvonT. (~Mond~)5/9/26, 4:23 PM
Totengraeber's Gruft (645|452) K461,406-Totengraeber (~Mond~)5/8/26, 10:43 PM
018 (652|486) K464,448mc morrice (-END-)BigMacBannDenWeg (~Mond~)5/8/26, 6:11 PM
Totengraeber's Gruft (645|450) K461,555-Totengraeber (~Mond~)5/8/26, 2:58 PM
Fürstenhof001 (632|475) K461,511-shiva 10 (~Mond~)5/7/26, 3:06 PM
R.I.P hary1 (620|480) K461,534-GrafvonT. (~Mond~)5/7/26, 9:42 AM
10 Calberlah (617|500) K561,551-uziii (~Mond~)5/7/26, 3:04 AM
017 (653|501) K564,820Kehrmann3 (Soli)BigMacBannDenWeg (~Mond~)5/7/26, 1:21 AM
224-Ag (639|482) K469,523GarriPotta (~Mond~)Azzlack029 (Legal)5/7/26, 12:58 AM
010.dorf 48 (643|480) K461,508-Der Ruhige60 (~Mond~)5/7/26, 12:55 AM
Schwarzer Delfin (634|475) K461,503-shiva 10 (~Mond~)5/6/26, 10:44 PM
Barbarendorf (620|428) K461,961-Stevebe78 (~Mond~)5/6/26, 10:01 PM
Weites Land (637|472) K461,537-shiva 10 (~Mond~)5/6/26, 6:52 PM
Kiel (630|428) K461,427-Peter-73 (~Mond~)5/6/26, 5:33 PM
Waldfee (631|470) K461,506-shiva 10 (~Mond~)5/6/26, 3:00 PM
Lager 6 (624|479) K461,511-GrafvonT. (~Mond~)5/6/26, 6:15 AM
Bernd das Brot001 (630|474) K461,505-shiva 10 (~Mond~)5/6/26, 1:38 AM
13-Sens Festung (559|536) K559,037Plastikmoewe (pax.)GarriPotta (~Mond~)5/5/26, 8:17 PM
Sturm der Liebe001 (639|475) K461,517-shiva 10 (~Mond~)5/5/26, 7:56 PM
08 Grußendorf (619|501) K561,542-uziii (~Mond~)5/5/26, 11:26 AM
016. (652|491) K463,149graf pitBigMacBannDenWeg (~Mond~)5/5/26, 11:10 AM
Barbarendorf (627|443) K461,556-Devil57 (~Mond~)5/5/26, 10:29 AM
09 Westerbeck (620|500) K561,503-uziii (~Mond~)5/5/26, 3:25 AM
Barbarendorf (625|424) K461,514-Stevebe78 (~Mond~)5/4/26, 11:57 PM
Barbarendorf (630|441) K461,501-Devil57 (~Mond~)5/4/26, 8:49 PM
12-Limgrave (596|583) K5510,380-GarriPotta (~Mond~)5/4/26, 12:26 AM
Kiew (629|434) K461,360-Peter-73 (~Mond~)5/3/26, 8:20 PM
Valencia (622|443) K461,405-Peter-73 (~Mond~)5/3/26, 6:53 PM
009.Dorf 48 (647|481) K463,232-Der Ruhige60 (~Mond~)5/2/26, 12:14 PM
~04~ VollmondDorf (638|447) K461,596-Vollmond62 (~Mond~)5/2/26, 10:59 AM
Rostock (631|427) K4682-Peter-73 (~Mond~)5/2/26, 6:47 AM
Totengraeber's Gruft (645|451) K463,886SirGuenTotengraeber (~Mond~)5/1/26, 11:02 PM
Lager 5 (619|478) K461,507-GrafvonT. (~Mond~)5/1/26, 2:20 PM
008.Dorf 48 (634|482) K464,697-Der Ruhige60 (~Mond~)5/1/26, 1:33 PM
11-Erzdrachengipfel (555|536) K551,796-GarriPotta (~Mond~)5/1/26, 9:18 AM
Barbarendorf (623|424) K461,545-Stevebe78 (~Mond~)5/1/26, 7:11 AM
Prag (636|447) K46621-Peter-73 (~Mond~)5/1/26, 1:29 AM
10-Schandstadt (577|541) K557,375-GarriPotta (~Mond~)4/29/26, 7:33 PM
09-Leyndell (565|540) K559,254-GarriPotta (~Mond~)4/29/26, 2:28 PM
08-Farron-Feste (575|540) K559,634-GarriPotta (~Mond~)4/29/26, 4:16 AM
015. (647|495) K461,538-BigMacBannDenWeg (~Mond~)4/28/26, 12:10 AM
~03~ VollmondDorf (633|445) K461,530-Vollmond62 (~Mond~)4/27/26, 3:31 PM
007.dorf 48 (636|483) K465,257-Der Ruhige60 (~Mond~)4/27/26, 3:20 PM
Lager 4 (625|477) K461,517-GrafvonT. (~Mond~)4/27/26, 7:21 AM
006.Dorf 48 (645|484) K462,743LuckyDer Ruhige60 (~Mond~)4/26/26, 11:18 PM
06-Majula (567|544) K558,573siegessicher (-END-)GarriPotta (~Mond~)4/26/26, 8:03 AM
014 (639|467) K461,522-BigMacBannDenWeg (~Mond~)4/23/26, 1:37 PM
  • Previous
  • Next
© 2026 TribalKit